Lark Harbour, Canada
Current Conditions -  °F | °C
As of 7:05 AM on Tuesday 21 Oct 2014 (Local Time) from CYJT Reporting Station
Rain Showers Rain Showers  
Wind Chill: 37°   Ceiling: 2400
Heat Index: 45°   Visibility: 15mi
Dew Point: 37°   Wind: 17mph
Humidity: 76%   Direction: 280°W
Pressure: 29.85"   Gusts: 32mph
Location:  49.1°N, 58.37°W
Report Text: CYJT 210905Z 28015G28KT 15SM -SHRA OVC024 07/03 A2985 RMK SC8 SLP110
Loading
Personal Weather Stations






























Interactive Weather Map
Tropical Storm Tracking
New forecast layout! Learn more

10-Day Weather Forecast

Advertisements
Track Severe Weather on mobile